Data ze zpráv METAR

Na této stránce "Data ze zpráv METAR" si můžete prohlédnout aktuální data o počasí z českých letišť.

LKKB - Kbely, Czech Republic
Distance from station: JJZ 98km
Aktualizováno v: 20/01/2019 02:00
NOT Current
Oblačno
Oblačno
 Vítr od V
Vítr: V 6 km/h
Teplota vzduchu: -6°C
Rosný bod: -8°C
Vlhkost: 86%
Tlak vzduchu: 1016 hPa
Clouds: Oblačno
Visibility: 10 km
Cloud details: Oblačno 762 m
2019/01/20 01:00 LKKB 200100Z 08003KT 040V160 9999 BKN025 M06/M08 Q1016
LKPR - Prague/Ruzyne, Czech Republic
Distance from station: JJZ 108km
Aktualizováno v: 20/01/2019 04:00
Oblačno
Oblačno
 Vítr od S
Vítr: S 6 km/h
Teplota vzduchu: -5°C
Rosný bod: -7°C
Vlhkost: 86%
Tlak vzduchu: 1015 hPa
Clouds: Oblačno
Visibility: 8 km
Cloud details: Oblačno 671 m
2019/01/20 03:00 LKPR 200300Z 35003KT 8000 BKN022 M05/M07 Q1015 NOSIG
 
LKPD - Pardubice, Czech Republic
Distance from station: JJV 111km
Aktualizováno v: 20/01/2019 03:00
Oblačno
Oblačno
 Vítr od S
Vítr: S 2 km/h
Teplota vzduchu: -5°C
Rosný bod: -8°C
Vlhkost: 80%
Tlak vzduchu: 1016 hPa
Clouds: Oblačno
Visibility: 10 km
Cloud details: Oblačno 1158 m
2019/01/20 02:00 LKPD 200200Z 36001KT 9999 BKN038 M05/M08 Q1016 RMK BLU
LKCV - Caslav, Czech Republic
Distance from station: JJV 113km
Aktualizováno v: 20/01/2019 03:00
Zataženo
Zataženo
 Vítr od ZSZ
Vítr: ZSZ 4 km/h
Teplota vzduchu: -4°C
Rosný bod: -5°C
Vlhkost: 93%
Tlak vzduchu: 1016 hPa
Clouds: Zataženo
Visibility: 10 km
Cloud details: Zataženo 914 m
2019/01/20 02:00 LKCV 200200Z 29002KT 9999 OVC030 M04/M05 Q1016 NOSIG RMK BLU BLU
 
LKKV - Karlovy Vary, Czech Republic
Distance from station: ZJZ 173km
Aktualizováno v: 20/01/2019 04:00
Oblačno
Oblačno
 Vítr od VJV
Vítr: VJV 7 km/h
Teplota vzduchu: -8°C
Wind Chill: -12°C
Rosný bod: -9°C
Vlhkost: 93%
Tlak vzduchu: 1013 hPa
Clouds: Oblačno
Visibility: 10 km
Cloud details: Oblačno 213 m
2019/01/20 03:00 LKKV 200300Z 12004KT 9999 BKN007 M08/M09 Q1013 R29///////
LKLN - Plzen Line, Czech Republic
Distance from station: JZ 189km
Aktualizováno v: 20/01/2019 04:01
Zataženo
Zataženo
 Vítr od SSV
Vítr: SSV 6 km/h
Teplota vzduchu: -4°C
Rosný bod: -6°C
Vlhkost: 86%
Tlak vzduchu: 1014 hPa
Clouds: Zataženo
Visibility: 10 km
Cloud details: Zataženo 457 m
2019/01/20 03:01 LKLN 200301Z AUTO 02003KT 330V090 9999 OVC015 M04/M06 Q1014
 
LKNA - Namest, Czech Republic
Distance from station: JJV 209km
Aktualizováno v: 20/01/2019 03:00
Zataženo
Zataženo
 Vítr od V
Vítr: V 11 km/h
Teplota vzduchu: -3°C
Wind Chill: -7°C
Rosný bod: -6°C
Vlhkost: 80%
Tlak vzduchu: 1014 hPa
Clouds: Zataženo
Visibility: 10 km
Cloud details: Zataženo 518 m
2019/01/20 02:00 LKNA 200200Z 09006KT 9999 OVC017 M03/M06 Q1014 RMK WHT
LKTB - Brno/Turany, Czech Republic
Distance from station: JJV 230km
Aktualizováno v: 20/01/2019 04:00
Jasno
Jasno
 Vítr od VSV
Vítr: VSV 15 km/h
Teplota vzduchu: -3°C
Wind Chill: -8°C
Rosný bod: -6°C
Vlhkost: 80%
Tlak vzduchu: 1016 hPa
Souhrn: Jasno
Visibility: greater than 10 km
2019/01/20 03:00 LKTB 200300Z 07008KT CAVOK M03/M06 Q1016 NOSIG